sensor_id;sensor_type;location;lat;lon;timestamp;P1;durP1;ratioP1;P2;durP2;ratioP2
3916;SDS011;1973;50.518;7.318;2023-10-13T00:02:00;10.43;;;8.67;;
3916;SDS011;1973;50.518;7.318;2023-10-13T00:04:31;12.43;;;8.70;;
3916;SDS011;1973;50.518;7.318;2023-10-13T00:07:02;12.57;;;8.00;;
3916;SDS011;1973;50.518;7.318;2023-10-13T00:09:30;11.30;;;8.70;;
3916;SDS011;1973;50.518;7.318;2023-10-13T00:12:04;11.10;;;8.97;;
3916;SDS011;1973;50.518;7.318;2023-10-13T00:14:41;15.57;;;8.73;;
3916;SDS011;1973;50.518;7.318;2023-10-13T00:17:08;10.20;;;8.53;;
3916;SDS011;1973;50.518;7.318;2023-10-13T00:19:37;12.63;;;8.80;;
3916;SDS011;1973;50.518;7.318;2023-10-13T00:22:10;12.20;;;9.00;;
3916;SDS011;1973;50.518;7.318;2023-10-13T00:24:39;15.07;;;8.77;;
3916;SDS011;1973;50.518;7.318;2023-10-13T00:27:13;11.97;;;9.30;;
3916;SDS011;1973;50.518;7.318;2023-10-13T00:30:00;10.30;;;9.30;;
3916;SDS011;1973;50.518;7.318;2023-10-13T00:32:51;10.20;;;8.63;;
3916;SDS011;1973;50.518;7.318;2023-10-13T00:35:23;14.00;;;7.50;;
3916;SDS011;1973;50.518;7.318;2023-10-13T00:37:55;11.57;;;8.30;;
3916;SDS011;1973;50.518;7.318;2023-10-13T00:40:31;12.70;;;8.77;;
3916;SDS011;1973;50.518;7.318;2023-10-13T00:42:58;12.27;;;8.90;;
3916;SDS011;1973;50.518;7.318;2023-10-13T00:45:53;12.50;;;8.93;;
3916;SDS011;1973;50.518;7.318;2023-10-13T00:48:24;12.93;;;8.53;;
3916;SDS011;1973;50.518;7.318;2023-10-13T00:51:02;12.87;;;8.70;;
3916;SDS011;1973;50.518;7.318;2023-10-13T00:53:34;12.00;;;8.37;;
3916;SDS011;1973;50.518;7.318;2023-10-13T00:56:10;10.70;;;8.97;;
3916;SDS011;1973;50.518;7.318;2023-10-13T00:58:48;10.20;;;9.17;;
3916;SDS011;1973;50.518;7.318;2023-10-13T01:01:22;18.80;;;10.13;;
3916;SDS011;1973;50.518;7.318;2023-10-13T01:03:50;12.70;;;9.53;;
3916;SDS011;1973;50.518;7.318;2023-10-13T01:06:27;13.93;;;10.23;;
3916;SDS011;1973;50.518;7.318;2023-10-13T01:08:59;13.00;;;10.73;;
3916;SDS011;1973;50.518;7.318;2023-10-13T01:11:37;15.63;;;9.80;;
3916;SDS011;1973;50.518;7.318;2023-10-13T01:14:11;16.70;;;10.83;;
3916;SDS011;1973;50.518;7.318;2023-10-13T01:16:38;12.30;;;10.07;;
3916;SDS011;1973;50.518;7.318;2023-10-13T01:19:10;14.60;;;9.40;;
3916;SDS011;1973;50.518;7.318;2023-10-13T01:21:40;11.27;;;9.27;;
3916;SDS011;1973;50.518;7.318;2023-10-13T01:24:13;12.60;;;9.20;;
3916;SDS011;1973;50.518;7.318;2023-10-13T01:26:52;13.90;;;10.60;;
3916;SDS011;1973;50.518;7.318;2023-10-13T01:29:19;12.83;;;10.30;;
3916;SDS011;1973;50.518;7.318;2023-10-13T01:31:46;16.03;;;11.20;;
3916;SDS011;1973;50.518;7.318;2023-10-13T01:34:16;16.53;;;10.73;;
3916;SDS011;1973;50.518;7.318;2023-10-13T01:36:51;10.87;;;9.63;;
3916;SDS011;1973;50.518;7.318;2023-10-13T01:39:20;12.17;;;9.80;;
3916;SDS011;1973;50.518;7.318;2023-10-13T01:41:55;12.67;;;11.30;;
3916;SDS011;1973;50.518;7.318;2023-10-13T01:44:23;19.03;;;10.57;;
3916;SDS011;1973;50.518;7.318;2023-10-13T01:46:50;17.53;;;11.90;;
3916;SDS011;1973;50.518;7.318;2023-10-13T01:49:17;15.30;;;13.30;;
3916;SDS011;1973;50.518;7.318;2023-10-13T01:51:44;18.10;;;12.00;;
3916;SDS011;1973;50.518;7.318;2023-10-13T01:54:14;20.67;;;12.10;;
3916;SDS011;1973;50.518;7.318;2023-10-13T01:56:42;16.70;;;11.17;;
3916;SDS011;1973;50.518;7.318;2023-10-13T01:59:10;14.43;;;11.40;;
3916;SDS011;1973;50.518;7.318;2023-10-13T02:01:38;17.17;;;11.33;;
3916;SDS011;1973;50.518;7.318;2023-10-13T02:04:06;16.40;;;11.30;;
3916;SDS011;1973;50.518;7.318;2023-10-13T02:06:34;14.27;;;11.23;;
3916;SDS011;1973;50.518;7.318;2023-10-13T02:09:06;16.53;;;12.50;;
3916;SDS011;1973;50.518;7.318;2023-10-13T02:11:43;13.73;;;12.23;;
3916;SDS011;1973;50.518;7.318;2023-10-13T02:14:13;15.90;;;11.50;;
3916;SDS011;1973;50.518;7.318;2023-10-13T02:16:43;18.87;;;11.40;;
3916;SDS011;1973;50.518;7.318;2023-10-13T02:19:13;14.73;;;11.80;;
3916;SDS011;1973;50.518;7.318;2023-10-13T02:21:42;12.60;;;10.17;;
3916;SDS011;1973;50.518;7.318;2023-10-13T02:24:11;12.80;;;11.30;;
3916;SDS011;1973;50.518;7.318;2023-10-13T02:26:45;14.23;;;11.33;;
3916;SDS011;1973;50.518;7.318;2023-10-13T02:29:12;18.70;;;11.30;;
3916;SDS011;1973;50.518;7.318;2023-10-13T02:31:44;15.57;;;12.53;;
3916;SDS011;1973;50.518;7.318;2023-10-13T02:34:21;15.47;;;11.63;;
3916;SDS011;1973;50.518;7.318;2023-10-13T02:36:50;13.20;;;11.67;;
3916;SDS011;1973;50.518;7.318;2023-10-13T02:39:20;15.03;;;12.07;;
3916;SDS011;1973;50.518;7.318;2023-10-13T02:41:52;17.20;;;12.27;;
3916;SDS011;1973;50.518;7.318;2023-10-13T02:44:22;14.37;;;12.63;;
3916;SDS011;1973;50.518;7.318;2023-10-13T02:46:59;14.60;;;12.40;;
3916;SDS011;1973;50.518;7.318;2023-10-13T02:49:26;17.03;;;11.70;;
3916;SDS011;1973;50.518;7.318;2023-10-13T02:51:53;16.93;;;12.33;;
3916;SDS011;1973;50.518;7.318;2023-10-13T02:54:26;14.70;;;11.43;;
3916;SDS011;1973;50.518;7.318;2023-10-13T02:56:57;17.30;;;11.33;;
3916;SDS011;1973;50.518;7.318;2023-10-13T02:59:26;16.70;;;11.97;;
3916;SDS011;1973;50.518;7.318;2023-10-13T03:02:16;15.90;;;12.07;;
3916;SDS011;1973;50.518;7.318;2023-10-13T03:04:53;14.57;;;11.50;;
3916;SDS011;1973;50.518;7.318;2023-10-13T03:07:36;14.10;;;12.70;;
3916;SDS011;1973;50.518;7.318;2023-10-13T03:10:03;18.43;;;12.70;;
3916;SDS011;1973;50.518;7.318;2023-10-13T03:12:37;17.23;;;12.70;;
3916;SDS011;1973;50.518;7.318;2023-10-13T03:15:05;14.90;;;11.77;;
3916;SDS011;1973;50.518;7.318;2023-10-13T03:17:40;18.73;;;11.80;;
3916;SDS011;1973;50.518;7.318;2023-10-13T03:20:10;15.60;;;12.03;;
3916;SDS011;1973;50.518;7.318;2023-10-13T03:22:42;18.70;;;12.30;;
3916;SDS011;1973;50.518;7.318;2023-10-13T03:25:13;21.53;;;12.73;;
3916;SDS011;1973;50.518;7.318;2023-10-13T03:27:50;15.13;;;12.30;;
3916;SDS011;1973;50.518;7.318;2023-10-13T03:30:17;17.03;;;11.40;;
3916;SDS011;1973;50.518;7.318;2023-10-13T03:32:47;16.40;;;12.87;;
3916;SDS011;1973;50.518;7.318;2023-10-13T03:35:23;15.87;;;12.30;;
3916;SDS011;1973;50.518;7.318;2023-10-13T03:37:51;23.33;;;15.37;;
3916;SDS011;1973;50.518;7.318;2023-10-13T03:40:18;16.93;;;13.87;;
3916;SDS011;1973;50.518;7.318;2023-10-13T03:42:49;13.87;;;12.47;;
3916;SDS011;1973;50.518;7.318;2023-10-13T03:45:32;16.70;;;13.30;;
3916;SDS011;1973;50.518;7.318;2023-10-13T03:48:09;21.13;;;13.50;;
3916;SDS011;1973;50.518;7.318;2023-10-13T03:50:58;18.67;;;13.10;;
3916;SDS011;1973;50.518;7.318;2023-10-13T03:53:30;16.40;;;11.30;;
3916;SDS011;1973;50.518;7.318;2023-10-13T03:56:06;16.70;;;12.73;;
3916;SDS011;1973;50.518;7.318;2023-10-13T03:58:43;16.10;;;11.37;;
3916;SDS011;1973;50.518;7.318;2023-10-13T04:01:13;15.13;;;11.23;;
3916;SDS011;1973;50.518;7.318;2023-10-13T04:03:43;17.80;;;13.10;;
3916;SDS011;1973;50.518;7.318;2023-10-13T04:06:28;19.23;;;12.70;;
3916;SDS011;1973;50.518;7.318;2023-10-13T04:09:17;16.77;;;13.00;;
3916;SDS011;1973;50.518;7.318;2023-10-13T04:12:00;20.47;;;12.60;;
3916;SDS011;1973;50.518;7.318;2023-10-13T04:15:02;18.63;;;14.00;;
3916;SDS011;1973;50.518;7.318;2023-10-13T04:17:30;16.87;;;12.83;;
3916;SDS011;1973;50.518;7.318;2023-10-13T04:20:07;16.10;;;11.83;;
3916;SDS011;1973;50.518;7.318;2023-10-13T04:28:14;15.13;;;10.93;;
3916;SDS011;1973;50.518;7.318;2023-10-13T04:33:33;16.70;;;11.40;;
3916;SDS011;1973;50.518;7.318;2023-10-13T04:36:13;12.00;;;10.70;;
3916;SDS011;1973;50.518;7.318;2023-10-13T04:38:49;21.87;;;12.17;;
3916;SDS011;1973;50.518;7.318;2023-10-13T04:44:23;14.70;;;10.87;;
3916;SDS011;1973;50.518;7.318;2023-10-13T04:46:57;13.77;;;10.53;;
3916;SDS011;1973;50.518;7.318;2023-10-13T04:49:28;14.50;;;10.27;;
3916;SDS011;1973;50.518;7.318;2023-10-13T04:52:02;12.40;;;10.80;;
3916;SDS011;1973;50.518;7.318;2023-10-13T04:54:38;13.60;;;10.90;;
3916;SDS011;1973;50.518;7.318;2023-10-13T04:57:16;13.07;;;10.37;;
3916;SDS011;1973;50.518;7.318;2023-10-13T04:59:50;15.57;;;10.60;;
3916;SDS011;1973;50.518;7.318;2023-10-13T05:02:36;13.20;;;10.50;;
3916;SDS011;1973;50.518;7.318;2023-10-13T05:05:30;13.57;;;8.73;;
3916;SDS011;1973;50.518;7.318;2023-10-13T05:08:12;16.17;;;10.90;;
3916;SDS011;1973;50.518;7.318;2023-10-13T05:11:02;15.33;;;10.30;;
3916;SDS011;1973;50.518;7.318;2023-10-13T05:13:49;15.47;;;9.70;;
3916;SDS011;1973;50.518;7.318;2023-10-13T05:16:33;15.00;;;10.13;;
3916;SDS011;1973;50.518;7.318;2023-10-13T05:19:18;14.60;;;9.97;;
3916;SDS011;1973;50.518;7.318;2023-10-13T05:22:04;12.80;;;9.33;;
3916;SDS011;1973;50.518;7.318;2023-10-13T05:24:49;16.07;;;9.03;;
3916;SDS011;1973;50.518;7.318;2023-10-13T05:27:34;10.80;;;8.70;;
3916;SDS011;1973;50.518;7.318;2023-10-13T05:30:19;13.90;;;9.00;;
3916;SDS011;1973;50.518;7.318;2023-10-13T05:33:04;11.90;;;9.30;;
3916;SDS011;1973;50.518;7.318;2023-10-13T05:35:49;13.77;;;8.27;;
3916;SDS011;1973;50.518;7.318;2023-10-13T05:38:34;13.57;;;8.60;;
3916;SDS011;1973;50.518;7.318;2023-10-13T05:41:19;16.07;;;8.43;;
3916;SDS011;1973;50.518;7.318;2023-10-13T05:44:24;14.90;;;8.77;;
3916;SDS011;1973;50.518;7.318;2023-10-13T05:47:03;15.07;;;9.90;;
3916;SDS011;1973;50.518;7.318;2023-10-13T05:49:49;19.10;;;10.33;;
3916;SDS011;1973;50.518;7.318;2023-10-13T05:52:18;13.67;;;8.70;;
3916;SDS011;1973;50.518;7.318;2023-10-13T05:54:46;14.93;;;8.50;;
3916;SDS011;1973;50.518;7.318;2023-10-13T05:57:32;10.50;;;8.13;;
3916;SDS011;1973;50.518;7.318;2023-10-13T06:00:18;15.30;;;9.20;;
3916;SDS011;1973;50.518;7.318;2023-10-13T06:03:03;17.27;;;9.30;;
3916;SDS011;1973;50.518;7.318;2023-10-13T06:05:48;14.13;;;8.27;;
3916;SDS011;1973;50.518;7.318;2023-10-13T06:08:33;16.20;;;10.33;;
3916;SDS011;1973;50.518;7.318;2023-10-13T06:11:19;12.90;;;8.13;;
3916;SDS011;1973;50.518;7.318;2023-10-13T06:14:04;17.53;;;8.80;;
3916;SDS011;1973;50.518;7.318;2023-10-13T06:16:48;11.50;;;7.50;;
3916;SDS011;1973;50.518;7.318;2023-10-13T06:19:33;12.10;;;8.73;;
3916;SDS011;1973;50.518;7.318;2023-10-13T06:22:19;15.03;;;8.43;;
3916;SDS011;1973;50.518;7.318;2023-10-13T06:25:04;11.67;;;7.27;;
3916;SDS011;1973;50.518;7.318;2023-10-13T06:27:49;9.73;;;7.53;;
3916;SDS011;1973;50.518;7.318;2023-10-13T06:30:34;16.57;;;7.90;;
3916;SDS011;1973;50.518;7.318;2023-10-13T06:33:01;15.13;;;8.63;;
3916;SDS011;1973;50.518;7.318;2023-10-13T06:35:30;15.83;;;7.67;;
3916;SDS011;1973;50.518;7.318;2023-10-13T06:37:57;13.10;;;8.13;;
3916;SDS011;1973;50.518;7.318;2023-10-13T06:40:27;15.10;;;8.23;;
3916;SDS011;1973;50.518;7.318;2023-10-13T06:43:00;14.27;;;7.87;;
3916;SDS011;1973;50.518;7.318;2023-10-13T06:45:39;13.77;;;7.33;;
3916;SDS011;1973;50.518;7.318;2023-10-13T06:48:06;16.07;;;8.27;;
3916;SDS011;1973;50.518;7.318;2023-10-13T06:50:37;14.00;;;9.10;;
3916;SDS011;1973;50.518;7.318;2023-10-13T06:53:08;15.67;;;8.87;;
3916;SDS011;1973;50.518;7.318;2023-10-13T06:55:38;15.63;;;8.07;;
3916;SDS011;1973;50.518;7.318;2023-10-13T06:58:06;15.53;;;8.80;;
3916;SDS011;1973;50.518;7.318;2023-10-13T07:00:33;17.33;;;8.40;;
3916;SDS011;1973;50.518;7.318;2023-10-13T07:03:04;12.20;;;7.07;;
3916;SDS011;1973;50.518;7.318;2023-10-13T07:05:44;13.70;;;7.40;;
3916;SDS011;1973;50.518;7.318;2023-10-13T07:08:15;18.90;;;8.30;;
3916;SDS011;1973;50.518;7.318;2023-10-13T07:10:47;11.77;;;7.00;;
3916;SDS011;1973;50.518;7.318;2023-10-13T07:13:39;17.50;;;7.43;;
3916;SDS011;1973;50.518;7.318;2023-10-13T07:16:06;13.10;;;7.27;;
3916;SDS011;1973;50.518;7.318;2023-10-13T07:18:54;13.77;;;7.57;;
3916;SDS011;1973;50.518;7.318;2023-10-13T07:21:21;10.60;;;7.00;;
3916;SDS011;1973;50.518;7.318;2023-10-13T07:24:00;13.17;;;7.37;;
3916;SDS011;1973;50.518;7.318;2023-10-13T07:26:34;15.57;;;6.70;;
3916;SDS011;1973;50.518;7.318;2023-10-13T07:29:09;13.60;;;6.93;;
3916;SDS011;1973;50.518;7.318;2023-10-13T07:31:37;16.40;;;7.67;;
3916;SDS011;1973;50.518;7.318;2023-10-13T07:34:08;13.80;;;7.80;;
3916;SDS011;1973;50.518;7.318;2023-10-13T07:36:53;13.83;;;7.10;;
3916;SDS011;1973;50.518;7.318;2023-10-13T07:39:26;15.83;;;8.10;;
3916;SDS011;1973;50.518;7.318;2023-10-13T07:42:01;11.90;;;7.13;;
3916;SDS011;1973;50.518;7.318;2023-10-13T07:44:31;13.57;;;7.10;;
3916;SDS011;1973;50.518;7.318;2023-10-13T07:47:00;14.20;;;7.13;;
3916;SDS011;1973;50.518;7.318;2023-10-13T07:49:31;14.57;;;6.33;;
3916;SDS011;1973;50.518;7.318;2023-10-13T07:52:05;15.83;;;6.50;;
3916;SDS011;1973;50.518;7.318;2023-10-13T07:54:51;13.63;;;7.07;;
3916;SDS011;1973;50.518;7.318;2023-10-13T07:57:53;15.57;;;6.60;;
3916;SDS011;1973;50.518;7.318;2023-10-13T08:00:21;18.77;;;7.37;;
3916;SDS011;1973;50.518;7.318;2023-10-13T08:02:57;15.47;;;6.40;;
3916;SDS011;1973;50.518;7.318;2023-10-13T08:05:36;11.03;;;5.67;;
3916;SDS011;1973;50.518;7.318;2023-10-13T08:08:09;13.80;;;7.10;;
3916;SDS011;1973;50.518;7.318;2023-10-13T08:10:41;15.07;;;6.97;;
3916;SDS011;1973;50.518;7.318;2023-10-13T08:13:12;11.10;;;7.27;;
3916;SDS011;1973;50.518;7.318;2023-10-13T08:15:42;13.97;;;6.90;;
3916;SDS011;1973;50.518;7.318;2023-10-13T08:18:16;12.20;;;7.17;;
3916;SDS011;1973;50.518;7.318;2023-10-13T08:21:02;10.83;;;5.90;;
3916;SDS011;1973;50.518;7.318;2023-10-13T08:23:30;17.67;;;7.60;;
3916;SDS011;1973;50.518;7.318;2023-10-13T08:26:15;15.80;;;8.30;;
3916;SDS011;1973;50.518;7.318;2023-10-13T08:29:17;15.90;;;8.67;;
3916;SDS011;1973;50.518;7.318;2023-10-13T08:31:49;11.07;;;6.53;;
3916;SDS011;1973;50.518;7.318;2023-10-13T08:34:32;12.70;;;7.20;;
3916;SDS011;1973;50.518;7.318;2023-10-13T08:37:06;12.90;;;6.57;;
3916;SDS011;1973;50.518;7.318;2023-10-13T08:39:48;12.90;;;6.33;;
3916;SDS011;1973;50.518;7.318;2023-10-13T08:42:35;11.20;;;6.03;;
3916;SDS011;1973;50.518;7.318;2023-10-13T08:45:07;13.80;;;6.10;;
3916;SDS011;1973;50.518;7.318;2023-10-13T08:47:56;11.23;;;6.47;;
3916;SDS011;1973;50.518;7.318;2023-10-13T08:50:47;13.23;;;7.73;;
3916;SDS011;1973;50.518;7.318;2023-10-13T08:53:21;12.40;;;6.33;;
3916;SDS011;1973;50.518;7.318;2023-10-13T08:56:09;11.27;;;6.37;;
3916;SDS011;1973;50.518;7.318;2023-10-13T08:58:57;14.70;;;6.27;;
3916;SDS011;1973;50.518;7.318;2023-10-13T09:01:31;10.43;;;5.97;;
3916;SDS011;1973;50.518;7.318;2023-10-13T09:04:16;18.53;;;6.67;;
3916;SDS011;1973;50.518;7.318;2023-10-13T09:07:02;8.60;;;6.47;;
3916;SDS011;1973;50.518;7.318;2023-10-13T09:09:45;10.90;;;6.73;;
3916;SDS011;1973;50.518;7.318;2023-10-13T09:12:13;13.10;;;6.03;;
3916;SDS011;1973;50.518;7.318;2023-10-13T09:15:02;13.90;;;6.30;;
3916;SDS011;1973;50.518;7.318;2023-10-13T09:17:51;13.63;;;7.83;;
3916;SDS011;1973;50.518;7.318;2023-10-13T09:20:19;11.13;;;6.70;;
3916;SDS011;1973;50.518;7.318;2023-10-13T09:23:15;11.33;;;6.10;;
3916;SDS011;1973;50.518;7.318;2023-10-13T09:25:51;13.93;;;7.53;;
3916;SDS011;1973;50.518;7.318;2023-10-13T09:28:27;8.50;;;6.47;;
3916;SDS011;1973;50.518;7.318;2023-10-13T09:30:55;9.90;;;7.03;;
3916;SDS011;1973;50.518;7.318;2023-10-13T09:33:26;10.53;;;6.60;;
3916;SDS011;1973;50.518;7.318;2023-10-13T09:36:02;11.37;;;7.07;;
3916;SDS011;1973;50.518;7.318;2023-10-13T09:38:33;14.13;;;6.97;;
3916;SDS011;1973;50.518;7.318;2023-10-13T09:41:03;16.40;;;9.00;;
3916;SDS011;1973;50.518;7.318;2023-10-13T09:43:52;21.70;;;7.90;;
3916;SDS011;1973;50.518;7.318;2023-10-13T09:46:26;9.57;;;6.70;;
3916;SDS011;1973;50.518;7.318;2023-10-13T09:48:57;13.73;;;8.20;;
3916;SDS011;1973;50.518;7.318;2023-10-13T09:51:31;10.17;;;7.40;;
3916;SDS011;1973;50.518;7.318;2023-10-13T09:54:06;10.60;;;7.17;;
3916;SDS011;1973;50.518;7.318;2023-10-13T09:56:50;10.83;;;7.53;;
3916;SDS011;1973;50.518;7.318;2023-10-13T09:59:22;9.10;;;7.40;;
3916;SDS011;1973;50.518;7.318;2023-10-13T10:02:01;13.10;;;7.83;;
3916;SDS011;1973;50.518;7.318;2023-10-13T10:04:36;8.23;;;7.10;;
3916;SDS011;1973;50.518;7.318;2023-10-13T10:07:24;9.53;;;7.17;;
3916;SDS011;1973;50.518;7.318;2023-10-13T10:09:58;10.53;;;7.10;;
3916;SDS011;1973;50.518;7.318;2023-10-13T10:12:42;9.70;;;7.43;;
3916;SDS011;1973;50.518;7.318;2023-10-13T10:18:19;11.23;;;8.43;;
3916;SDS011;1973;50.518;7.318;2023-10-13T10:21:02;9.50;;;7.27;;
3916;SDS011;1973;50.518;7.318;2023-10-13T10:23:33;10.27;;;8.40;;
3916;SDS011;1973;50.518;7.318;2023-10-13T10:26:09;14.30;;;7.53;;
3916;SDS011;1973;50.518;7.318;2023-10-13T10:28:42;10.17;;;7.53;;
3916;SDS011;1973;50.518;7.318;2023-10-13T10:31:10;11.80;;;7.67;;
3916;SDS011;1973;50.518;7.318;2023-10-13T10:33:43;11.23;;;7.50;;
3916;SDS011;1973;50.518;7.318;2023-10-13T10:36:11;11.03;;;7.27;;
3916;SDS011;1973;50.518;7.318;2023-10-13T10:38:53;10.20;;;6.93;;
3916;SDS011;1973;50.518;7.318;2023-10-13T10:41:28;14.77;;;8.63;;
3916;SDS011;1973;50.518;7.318;2023-10-13T10:44:18;18.03;;;7.20;;
3916;SDS011;1973;50.518;7.318;2023-10-13T10:47:13;12.70;;;7.23;;
3916;SDS011;1973;50.518;7.318;2023-10-13T10:50:02;15.07;;;8.43;;
3916;SDS011;1973;50.518;7.318;2023-10-13T10:52:45;9.93;;;6.87;;
3916;SDS011;1973;50.518;7.318;2023-10-13T10:55:13;9.67;;;6.97;;
3916;SDS011;1973;50.518;7.318;2023-10-13T10:57:46;14.10;;;7.10;;
3916;SDS011;1973;50.518;7.318;2023-10-13T11:00:21;9.00;;;6.30;;
3916;SDS011;1973;50.518;7.318;2023-10-13T11:02:55;14.33;;;7.07;;
3916;SDS011;1973;50.518;7.318;2023-10-13T11:05:23;13.67;;;7.10;;
3916;SDS011;1973;50.518;7.318;2023-10-13T11:07:58;11.70;;;7.00;;
3916;SDS011;1973;50.518;7.318;2023-10-13T11:10:25;7.40;;;6.30;;
3916;SDS011;1973;50.518;7.318;2023-10-13T11:12:56;11.77;;;6.77;;
3916;SDS011;1973;50.518;7.318;2023-10-13T11:15:41;12.00;;;6.87;;
3916;SDS011;1973;50.518;7.318;2023-10-13T11:18:14;10.27;;;6.70;;
3916;SDS011;1973;50.518;7.318;2023-10-13T11:20:48;9.60;;;6.80;;
3916;SDS011;1973;50.518;7.318;2023-10-13T11:23:20;11.23;;;6.87;;
3916;SDS011;1973;50.518;7.318;2023-10-13T11:25:57;13.20;;;7.00;;
3916;SDS011;1973;50.518;7.318;2023-10-13T11:28:29;16.50;;;6.80;;
3916;SDS011;1973;50.518;7.318;2023-10-13T11:30:58;8.10;;;6.40;;
3916;SDS011;1973;50.518;7.318;2023-10-13T11:33:26;10.23;;;6.40;;
3916;SDS011;1973;50.518;7.318;2023-10-13T11:35:57;9.00;;;6.90;;
3916;SDS011;1973;50.518;7.318;2023-10-13T11:38:29;8.80;;;6.60;;
3916;SDS011;1973;50.518;7.318;2023-10-13T11:41:09;10.50;;;6.70;;
3916;SDS011;1973;50.518;7.318;2023-10-13T11:46:27;17.03;;;7.50;;
3916;SDS011;1973;50.518;7.318;2023-10-13T11:49:04;13.07;;;7.30;;
3916;SDS011;1973;50.518;7.318;2023-10-13T11:51:53;10.07;;;6.60;;
3916;SDS011;1973;50.518;7.318;2023-10-13T11:54:43;22.67;;;7.33;;
3916;SDS011;1973;50.518;7.318;2023-10-13T11:57:10;10.40;;;6.70;;
3916;SDS011;1973;50.518;7.318;2023-10-13T11:59:36;8.73;;;5.77;;
3916;SDS011;1973;50.518;7.318;2023-10-13T12:02:10;10.03;;;6.73;;
3916;SDS011;1973;50.518;7.318;2023-10-13T12:04:38;11.40;;;6.87;;
3916;SDS011;1973;50.518;7.318;2023-10-13T12:07:25;13.07;;;7.17;;
3916;SDS011;1973;50.518;7.318;2023-10-13T12:10:10;9.77;;;6.30;;
3916;SDS011;1973;50.518;7.318;2023-10-13T12:13:00;11.80;;;6.47;;
3916;SDS011;1973;50.518;7.318;2023-10-13T12:15:32;11.90;;;6.70;;
3916;SDS011;1973;50.518;7.318;2023-10-13T12:18:15;8.27;;;6.80;;
3916;SDS011;1973;50.518;7.318;2023-10-13T12:20:42;9.53;;;7.07;;
3916;SDS011;1973;50.518;7.318;2023-10-13T12:23:12;9.63;;;6.30;;
3916;SDS011;1973;50.518;7.318;2023-10-13T12:25:43;7.90;;;6.40;;
3916;SDS011;1973;50.518;7.318;2023-10-13T12:28:26;8.37;;;5.90;;
3916;SDS011;1973;50.518;7.318;2023-10-13T12:30:55;11.33;;;6.70;;
3916;SDS011;1973;50.518;7.318;2023-10-13T12:33:24;8.90;;;6.70;;
3916;SDS011;1973;50.518;7.318;2023-10-13T12:36:02;8.27;;;6.80;;
3916;SDS011;1973;50.518;7.318;2023-10-13T12:38:37;9.10;;;7.10;;
3916;SDS011;1973;50.518;7.318;2023-10-13T12:41:24;10.90;;;7.30;;
3916;SDS011;1973;50.518;7.318;2023-10-13T12:44:09;11.23;;;6.50;;
3916;SDS011;1973;50.518;7.318;2023-10-13T12:46:54;11.10;;;6.73;;
3916;SDS011;1973;50.518;7.318;2023-10-13T12:49:40;12.60;;;6.60;;
3916;SDS011;1973;50.518;7.318;2023-10-13T12:52:10;10.40;;;6.50;;
3916;SDS011;1973;50.518;7.318;2023-10-13T12:54:52;8.90;;;5.70;;
3916;SDS011;1973;50.518;7.318;2023-10-13T12:57:22;10.00;;;5.87;;
3916;SDS011;1973;50.518;7.318;2023-10-13T12:59:49;11.77;;;6.67;;
3916;SDS011;1973;50.518;7.318;2023-10-13T13:02:23;10.70;;;6.53;;
3916;SDS011;1973;50.518;7.318;2023-10-13T13:04:55;8.20;;;5.90;;
3916;SDS011;1973;50.518;7.318;2023-10-13T13:07:40;12.50;;;6.47;;
3916;SDS011;1973;50.518;7.318;2023-10-13T13:10:13;14.23;;;7.00;;
3916;SDS011;1973;50.518;7.318;2023-10-13T13:12:41;12.37;;;6.50;;
3916;SDS011;1973;50.518;7.318;2023-10-13T13:15:08;14.70;;;7.30;;
3916;SDS011;1973;50.518;7.318;2023-10-13T13:17:35;11.20;;;6.90;;
3916;SDS011;1973;50.518;7.318;2023-10-13T13:20:03;9.07;;;6.97;;
3916;SDS011;1973;50.518;7.318;2023-10-13T13:22:37;9.50;;;6.00;;
3916;SDS011;1973;50.518;7.318;2023-10-13T13:25:05;9.97;;;6.70;;
3916;SDS011;1973;50.518;7.318;2023-10-13T13:27:36;12.17;;;7.07;;
3916;SDS011;1973;50.518;7.318;2023-10-13T13:30:03;14.37;;;6.40;;
3916;SDS011;1973;50.518;7.318;2023-10-13T13:32:39;13.53;;;5.97;;
3916;SDS011;1973;50.518;7.318;2023-10-13T13:35:07;8.47;;;6.07;;
3916;SDS011;1973;50.518;7.318;2023-10-13T13:37:35;10.90;;;6.17;;
3916;SDS011;1973;50.518;7.318;2023-10-13T13:40:04;8.70;;;6.03;;
3916;SDS011;1973;50.518;7.318;2023-10-13T13:42:41;9.90;;;6.60;;
3916;SDS011;1973;50.518;7.318;2023-10-13T13:45:15;9.23;;;6.70;;
3916;SDS011;1973;50.518;7.318;2023-10-13T13:47:54;10.17;;;6.10;;
3916;SDS011;1973;50.518;7.318;2023-10-13T13:50:23;11.87;;;6.23;;
3916;SDS011;1973;50.518;7.318;2023-10-13T13:52:56;10.77;;;5.80;;
3916;SDS011;1973;50.518;7.318;2023-10-13T13:55:24;10.80;;;6.83;;
3916;SDS011;1973;50.518;7.318;2023-10-13T13:57:55;9.47;;;5.40;;
3916;SDS011;1973;50.518;7.318;2023-10-13T14:00:22;11.27;;;7.13;;
3916;SDS011;1973;50.518;7.318;2023-10-13T14:03:04;9.03;;;6.07;;
3916;SDS011;1973;50.518;7.318;2023-10-13T14:06:00;8.93;;;5.63;;
3916;SDS011;1973;50.518;7.318;2023-10-13T14:08:27;13.47;;;6.30;;
3916;SDS011;1973;50.518;7.318;2023-10-13T14:10:54;13.70;;;6.47;;
3916;SDS011;1973;50.518;7.318;2023-10-13T14:13:38;10.87;;;6.77;;
3916;SDS011;1973;50.518;7.318;2023-10-13T14:16:16;10.40;;;5.83;;
3916;SDS011;1973;50.518;7.318;2023-10-13T14:18:44;13.90;;;6.13;;
3916;SDS011;1973;50.518;7.318;2023-10-13T14:21:11;10.80;;;6.40;;
3916;SDS011;1973;50.518;7.318;2023-10-13T14:23:46;13.57;;;6.13;;
3916;SDS011;1973;50.518;7.318;2023-10-13T14:26:14;11.77;;;6.83;;
3916;SDS011;1973;50.518;7.318;2023-10-13T14:28:47;12.43;;;6.10;;
3916;SDS011;1973;50.518;7.318;2023-10-13T14:31:40;8.60;;;5.33;;
3916;SDS011;1973;50.518;7.318;2023-10-13T14:34:07;10.53;;;6.13;;
3916;SDS011;1973;50.518;7.318;2023-10-13T14:36:34;11.93;;;6.60;;
3916;SDS011;1973;50.518;7.318;2023-10-13T14:39:02;10.10;;;6.57;;
3916;SDS011;1973;50.518;7.318;2023-10-13T14:41:35;11.30;;;6.23;;
3916;SDS011;1973;50.518;7.318;2023-10-13T14:44:04;9.37;;;5.93;;
3916;SDS011;1973;50.518;7.318;2023-10-13T14:46:33;15.73;;;6.67;;
3916;SDS011;1973;50.518;7.318;2023-10-13T14:49:06;13.43;;;6.60;;
3916;SDS011;1973;50.518;7.318;2023-10-13T14:51:32;10.77;;;5.60;;
3916;SDS011;1973;50.518;7.318;2023-10-13T14:53:59;8.80;;;5.80;;
3916;SDS011;1973;50.518;7.318;2023-10-13T14:56:26;7.13;;;6.03;;
3916;SDS011;1973;50.518;7.318;2023-10-13T14:58:53;9.63;;;6.03;;
3916;SDS011;1973;50.518;7.318;2023-10-13T15:01:21;7.13;;;5.40;;
3916;SDS011;1973;50.518;7.318;2023-10-13T15:03:51;6.90;;;5.50;;
3916;SDS011;1973;50.518;7.318;2023-10-13T15:06:26;11.30;;;6.40;;
3916;SDS011;1973;50.518;7.318;2023-10-13T15:08:57;11.20;;;6.53;;
3916;SDS011;1973;50.518;7.318;2023-10-13T15:11:25;8.43;;;5.43;;
3916;SDS011;1973;50.518;7.318;2023-10-13T15:13:53;7.27;;;5.60;;
3916;SDS011;1973;50.518;7.318;2023-10-13T15:16:23;7.83;;;5.27;;
3916;SDS011;1973;50.518;7.318;2023-10-13T15:18:53;10.87;;;5.87;;
3916;SDS011;1973;50.518;7.318;2023-10-13T15:21:27;11.80;;;5.60;;
3916;SDS011;1973;50.518;7.318;2023-10-13T15:24:04;8.37;;;5.73;;
3916;SDS011;1973;50.518;7.318;2023-10-13T15:26:51;9.80;;;6.63;;
3916;SDS011;1973;50.518;7.318;2023-10-13T15:29:19;9.10;;;5.67;;
3916;SDS011;1973;50.518;7.318;2023-10-13T15:31:51;8.50;;;5.70;;
3916;SDS011;1973;50.518;7.318;2023-10-13T15:34:25;15.20;;;6.70;;
3916;SDS011;1973;50.518;7.318;2023-10-13T15:36:53;7.70;;;6.20;;
3916;SDS011;1973;50.518;7.318;2023-10-13T15:39:22;10.47;;;5.80;;
3916;SDS011;1973;50.518;7.318;2023-10-13T15:41:56;12.00;;;6.00;;
3916;SDS011;1973;50.518;7.318;2023-10-13T15:44:26;9.57;;;6.20;;
3916;SDS011;1973;50.518;7.318;2023-10-13T15:46:57;7.77;;;5.87;;
3916;SDS011;1973;50.518;7.318;2023-10-13T15:49:29;10.13;;;6.13;;
3916;SDS011;1973;50.518;7.318;2023-10-13T15:51:56;9.30;;;6.73;;
3916;SDS011;1973;50.518;7.318;2023-10-13T15:54:24;7.70;;;5.37;;
3916;SDS011;1973;50.518;7.318;2023-10-13T15:56:51;8.93;;;5.93;;
3916;SDS011;1973;50.518;7.318;2023-10-13T15:59:18;6.90;;;5.80;;
3916;SDS011;1973;50.518;7.318;2023-10-13T16:01:45;14.73;;;6.13;;
3916;SDS011;1973;50.518;7.318;2023-10-13T16:04:13;8.43;;;5.73;;
3916;SDS011;1973;50.518;7.318;2023-10-13T16:06:40;7.93;;;6.20;;